Ora Direzione Vento Velocita' Vento Media Vento Raffica Max. Temperatura Wind Chill Pioggia Pressione
00:02:12.043 °(NE)4.9 Kts4.7 Kts5.4 Kts9.6 °C8.4 °C0.0 mm1021.0 Hpa
23:42:06.036 °(NE)5.1 Kts4.3 Kts15.0 Kts9.9 °C8.9 °C0.0 mm1021.0 Hpa
23:20:23.034 °(NE)4.5 Kts3.3 Kts15.0 Kts10.2 °C9.3 °C0.0 mm1020.0 Hpa
23:00:35.0349 °(N)5.2 Kts5.1 Kts15.0 Kts10.5 °C9.3 °C0.0 mm1021.0 Hpa
22:40:42.023 °(NNE)5.8 Kts4.9 Kts15.0 Kts10.9 °C9.4 °C0.0 mm1021.0 Hpa
22:20:40.025 °(NNE)4.7 Kts3.1 Kts15.0 Kts10.3 °C9.2 °C0.0 mm1021.0 Hpa
22:00:41.06 °(N)6.0 Kts5.2 Kts15.0 Kts10.2 °C8.7 °C0.0 mm1021.0 Hpa
21:41:01.024 °(NNE)7.4 Kts7.4 Kts15.0 Kts10.4 °C8.6 °C0.0 mm1021.0 Hpa
21:21:19.05 °(N)4.9 Kts4.7 Kts15.0 Kts10.6 °C9.6 °C0.0 mm1021.0 Hpa
21:01:26.021 °(NNE)3.1 Kts2.7 Kts15.0 Kts10.8 °C10.5 °C0.0 mm1021.0 Hpa
20:41:41.024 °(NNE)5.4 Kts4.3 Kts15.0 Kts10.5 °C9.6 °C0.0 mm1021.0 Hpa
20:22:09.027 °(NNE)6.2 Kts5.8 Kts15.0 Kts10.5 °C8.9 °C0.0 mm1021.0 Hpa
19:59:55.049 °(NE)4.9 Kts3.3 Kts15.0 Kts10.7 °C9.8 °C0.0 mm1021.0 Hpa
19:40:19.027 °(NNE)4.3 Kts2.9 Kts15.0 Kts10.8 °C10.0 °C0.0 mm1021.0 Hpa
19:20:35.028 °(NNE)4.3 Kts3.1 Kts15.0 Kts11.1 °C10.3 °C0.0 mm1021.0 Hpa
19:00:40.037 °(NE)3.1 Kts2.3 Kts15.0 Kts11.9 °C11.9 °C0.0 mm1021.0 Hpa
18:40:55.034 °(NE)4.5 Kts1.6 Kts15.0 Kts12.2 °C12.2 °C0.0 mm1020.0 Hpa
18:21:15.037 °(NE)4.5 Kts3.3 Kts15.0 Kts12.7 °C12.2 °C0.0 mm1021.0 Hpa
18:01:27.044 °(NE)4.5 Kts1.9 Kts15.0 Kts12.6 °C12.6 °C0.0 mm1021.0 Hpa
17:41:38.05 °(N)2.9 Kts2.1 Kts15.0 Kts12.9 °C12.9 °C0.0 mm1020.0 Hpa